Village Station, Georgia
Current Conditions -  °F | °C
As of 3:58 AM on Thursday 18 Dec 2014 (Local Time) from KSVN Reporting Station
Clear Clear  
Wind Chill: 38°   Ceiling: Unl
Heat Index: 38°   Visibility: 10mi
Dew Point: 37°   Wind: 0mph
Humidity: 97%   Direction: NA
Pressure: 30.09"   Gusts: NA
Location:  31.9252°N, 81.0354°W
Report Text: KSVN 180858Z AUTO 00000KT 10SM CLR 03/03 A3009 RMK AO2 VIS 2 RWY10 SLP193 T00340029 58003
Loading
Personal Weather Stations






























Interactive Weather Map New forecast layout! Learn more

10-Day Weather Forecast

Advertisements
Track Severe Weather on mobile